sensor_id;sensor_type;location;lat;lon;timestamp;temperature;humidity
8945;DHT22;4507;40.232;29.132;2023-02-04T00:01:40;1.30;99.90
8945;DHT22;4507;40.232;29.132;2023-02-04T00:04:11;1.30;99.90
8945;DHT22;4507;40.232;29.132;2023-02-04T00:06:40;1.30;99.90
8945;DHT22;4507;40.232;29.132;2023-02-04T00:09:09;1.30;99.90
8945;DHT22;4507;40.232;29.132;2023-02-04T00:11:39;1.30;99.90
8945;DHT22;4507;40.232;29.132;2023-02-04T00:14:08;1.40;99.90
8945;DHT22;4507;40.232;29.132;2023-02-04T00:16:36;1.30;99.90
8945;DHT22;4507;40.232;29.132;2023-02-04T00:19:07;1.40;99.90
8945;DHT22;4507;40.232;29.132;2023-02-04T00:21:36;1.40;99.90
8945;DHT22;4507;40.232;29.132;2023-02-04T00:24:05;1.40;99.90
8945;DHT22;4507;40.232;29.132;2023-02-04T00:26:34;1.40;99.90
8945;DHT22;4507;40.232;29.132;2023-02-04T00:29:02;1.40;99.90
8945;DHT22;4507;40.232;29.132;2023-02-04T00:31:32;1.40;99.90
8945;DHT22;4507;40.232;29.132;2023-02-04T00:34:01;1.40;99.90
8945;DHT22;4507;40.232;29.132;2023-02-04T00:36:31;1.30;99.90
8945;DHT22;4507;40.232;29.132;2023-02-04T00:39:00;1.40;99.90
8945;DHT22;4507;40.232;29.132;2023-02-04T00:41:29;1.30;99.90
8945;DHT22;4507;40.232;29.132;2023-02-04T00:43:58;1.30;99.90
8945;DHT22;4507;40.232;29.132;2023-02-04T00:46:27;1.30;99.90
8945;DHT22;4507;40.232;29.132;2023-02-04T00:48:56;1.30;99.90
8945;DHT22;4507;40.232;29.132;2023-02-04T00:51:25;1.20;99.90
8945;DHT22;4507;40.232;29.132;2023-02-04T00:53:56;1.20;99.90
8945;DHT22;4507;40.232;29.132;2023-02-04T00:56:25;1.20;99.90
8945;DHT22;4507;40.232;29.132;2023-02-04T00:58:53;1.20;99.90
8945;DHT22;4507;40.232;29.132;2023-02-04T01:01:22;1.10;99.90
8945;DHT22;4507;40.232;29.132;2023-02-04T01:03:51;1.10;99.90
8945;DHT22;4507;40.232;29.132;2023-02-04T01:06:22;1.10;99.90
8945;DHT22;4507;40.232;29.132;2023-02-04T01:08:51;1.10;99.90
8945;DHT22;4507;40.232;29.132;2023-02-04T01:11:23;1.10;99.90
8945;DHT22;4507;40.232;29.132;2023-02-04T01:13:53;1.00;99.90
8945;DHT22;4507;40.232;29.132;2023-02-04T01:16:22;1.00;99.90
8945;DHT22;4507;40.232;29.132;2023-02-04T01:18:58;1.00;99.90
8945;DHT22;4507;40.232;29.132;2023-02-04T01:21:27;1.00;99.90
8945;DHT22;4507;40.232;29.132;2023-02-04T01:23:56;1.00;99.90
8945;DHT22;4507;40.232;29.132;2023-02-04T01:26:27;0.90;99.90
8945;DHT22;4507;40.232;29.132;2023-02-04T01:28:56;1.00;99.90
8945;DHT22;4507;40.232;29.132;2023-02-04T01:31:25;0.90;99.90
8945;DHT22;4507;40.232;29.132;2023-02-04T01:33:54;1.00;99.90
8945;DHT22;4507;40.232;29.132;2023-02-04T01:36:23;1.00;99.90
8945;DHT22;4507;40.232;29.132;2023-02-04T01:38:52;1.00;99.90
8945;DHT22;4507;40.232;29.132;2023-02-04T01:41:21;1.00;99.90
8945;DHT22;4507;40.232;29.132;2023-02-04T01:43:51;1.00;99.90
8945;DHT22;4507;40.232;29.132;2023-02-04T01:46:21;1.00;99.90
8945;DHT22;4507;40.232;29.132;2023-02-04T01:48:50;1.00;99.90
8945;DHT22;4507;40.232;29.132;2023-02-04T01:51:25;1.00;99.90
8945;DHT22;4507;40.232;29.132;2023-02-04T01:53:56;0.90;99.90
8945;DHT22;4507;40.232;29.132;2023-02-04T01:56:26;0.90;99.90
8945;DHT22;4507;40.232;29.132;2023-02-04T01:58:57;0.90;99.90
8945;DHT22;4507;40.232;29.132;2023-02-04T02:01:35;0.90;99.90
8945;DHT22;4507;40.232;29.132;2023-02-04T02:04:05;0.90;99.90
8945;DHT22;4507;40.232;29.132;2023-02-04T02:06:34;0.90;99.90
8945;DHT22;4507;40.232;29.132;2023-02-04T02:09:04;0.90;99.90
8945;DHT22;4507;40.232;29.132;2023-02-04T02:11:33;0.90;99.90
8945;DHT22;4507;40.232;29.132;2023-02-04T02:14:04;0.90;99.90
8945;DHT22;4507;40.232;29.132;2023-02-04T02:16:33;0.90;99.90
8945;DHT22;4507;40.232;29.132;2023-02-04T02:19:02;0.80;99.90
8945;DHT22;4507;40.232;29.132;2023-02-04T02:21:37;0.80;99.90
8945;DHT22;4507;40.232;29.132;2023-02-04T02:24:27;0.90;99.90
8945;DHT22;4507;40.232;29.132;2023-02-04T02:27:00;0.80;99.90
8945;DHT22;4507;40.232;29.132;2023-02-04T02:29:29;0.80;99.90
8945;DHT22;4507;40.232;29.132;2023-02-04T02:31:58;0.80;99.90
8945;DHT22;4507;40.232;29.132;2023-02-04T02:34:28;0.80;99.90
8945;DHT22;4507;40.232;29.132;2023-02-04T02:36:58;0.70;99.90
8945;DHT22;4507;40.232;29.132;2023-02-04T02:39:29;0.70;99.90
8945;DHT22;4507;40.232;29.132;2023-02-04T02:41:59;0.70;99.90
8945;DHT22;4507;40.232;29.132;2023-02-04T02:44:28;0.70;99.90
8945;DHT22;4507;40.232;29.132;2023-02-04T02:46:58;0.70;99.90
8945;DHT22;4507;40.232;29.132;2023-02-04T02:49:29;0.60;99.90
8945;DHT22;4507;40.232;29.132;2023-02-04T02:51:58;0.60;99.90
8945;DHT22;4507;40.232;29.132;2023-02-04T02:54:30;0.60;99.90
8945;DHT22;4507;40.232;29.132;2023-02-04T02:57:04;0.60;99.90
8945;DHT22;4507;40.232;29.132;2023-02-04T02:59:37;0.60;99.90
8945;DHT22;4507;40.232;29.132;2023-02-04T03:02:07;0.60;99.90
8945;DHT22;4507;40.232;29.132;2023-02-04T03:04:40;0.60;99.90
8945;DHT22;4507;40.232;29.132;2023-02-04T03:07:11;0.60;99.90
8945;DHT22;4507;40.232;29.132;2023-02-04T03:09:43;0.60;99.90
8945;DHT22;4507;40.232;29.132;2023-02-04T03:12:12;0.60;99.90
8945;DHT22;4507;40.232;29.132;2023-02-04T03:14:41;0.60;99.90
8945;DHT22;4507;40.232;29.132;2023-02-04T03:17:10;0.60;99.90
8945;DHT22;4507;40.232;29.132;2023-02-04T03:19:39;0.60;99.90
8945;DHT22;4507;40.232;29.132;2023-02-04T03:22:08;0.60;99.90
8945;DHT22;4507;40.232;29.132;2023-02-04T03:24:38;0.60;99.90
8945;DHT22;4507;40.232;29.132;2023-02-04T03:27:08;0.60;99.90
8945;DHT22;4507;40.232;29.132;2023-02-04T03:29:42;0.60;99.90
8945;DHT22;4507;40.232;29.132;2023-02-04T03:32:11;0.60;99.90
8945;DHT22;4507;40.232;29.132;2023-02-04T03:34:40;0.60;99.90
8945;DHT22;4507;40.232;29.132;2023-02-04T03:37:09;0.60;99.90
8945;DHT22;4507;40.232;29.132;2023-02-04T03:39:38;0.60;99.90
8945;DHT22;4507;40.232;29.132;2023-02-04T03:42:08;0.60;99.90
8945;DHT22;4507;40.232;29.132;2023-02-04T03:44:37;0.60;99.90
8945;DHT22;4507;40.232;29.132;2023-02-04T03:47:06;0.60;99.90
8945;DHT22;4507;40.232;29.132;2023-02-04T03:49:35;0.60;99.90
8945;DHT22;4507;40.232;29.132;2023-02-04T03:52:04;0.60;99.90
8945;DHT22;4507;40.232;29.132;2023-02-04T03:54:33;0.60;99.90
8945;DHT22;4507;40.232;29.132;2023-02-04T03:57:02;0.60;99.90
8945;DHT22;4507;40.232;29.132;2023-02-04T03:59:32;0.60;99.90
8945;DHT22;4507;40.232;29.132;2023-02-04T04:02:01;0.60;99.90
8945;DHT22;4507;40.232;29.132;2023-02-04T04:04:30;0.60;99.90
8945;DHT22;4507;40.232;29.132;2023-02-04T04:06:59;0.60;99.90
8945;DHT22;4507;40.232;29.132;2023-02-04T04:09:27;0.60;99.90
8945;DHT22;4507;40.232;29.132;2023-02-04T04:11:57;0.60;99.90
8945;DHT22;4507;40.232;29.132;2023-02-04T04:14:26;0.60;99.90
8945;DHT22;4507;40.232;29.132;2023-02-04T04:16:56;0.60;99.90
8945;DHT22;4507;40.232;29.132;2023-02-04T04:19:25;0.60;99.90
8945;DHT22;4507;40.232;29.132;2023-02-04T04:21:54;0.60;99.90
8945;DHT22;4507;40.232;29.132;2023-02-04T04:24:22;0.60;99.90
8945;DHT22;4507;40.232;29.132;2023-02-04T04:26:51;0.60;99.90
8945;DHT22;4507;40.232;29.132;2023-02-04T04:29:20;0.60;99.90
8945;DHT22;4507;40.232;29.132;2023-02-04T04:31:49;0.60;99.90
8945;DHT22;4507;40.232;29.132;2023-02-04T04:34:19;0.60;99.90
8945;DHT22;4507;40.232;29.132;2023-02-04T04:36:48;0.60;99.90
8945;DHT22;4507;40.232;29.132;2023-02-04T04:39:17;0.60;99.90
8945;DHT22;4507;40.232;29.132;2023-02-04T04:41:46;0.60;99.90
8945;DHT22;4507;40.232;29.132;2023-02-04T04:44:15;0.60;99.90
8945;DHT22;4507;40.232;29.132;2023-02-04T04:46:43;0.70;99.90
8945;DHT22;4507;40.232;29.132;2023-02-04T04:49:12;0.70;99.90
8945;DHT22;4507;40.232;29.132;2023-02-04T04:51:44;0.70;99.90
8945;DHT22;4507;40.232;29.132;2023-02-04T04:54:12;0.70;99.90
8945;DHT22;4507;40.232;29.132;2023-02-04T04:56:41;0.70;99.90
8945;DHT22;4507;40.232;29.132;2023-02-04T04:59:10;0.80;99.90
8945;DHT22;4507;40.232;29.132;2023-02-04T05:01:40;0.80;99.90
8945;DHT22;4507;40.232;29.132;2023-02-04T05:04:09;0.80;99.90
8945;DHT22;4507;40.232;29.132;2023-02-04T05:06:37;0.80;99.90
8945;DHT22;4507;40.232;29.132;2023-02-04T05:09:08;0.90;99.90
8945;DHT22;4507;40.232;29.132;2023-02-04T05:11:37;0.90;99.90
8945;DHT22;4507;40.232;29.132;2023-02-04T05:14:06;0.90;99.90
8945;DHT22;4507;40.232;29.132;2023-02-04T05:16:34;1.00;99.90
8945;DHT22;4507;40.232;29.132;2023-02-04T05:19:03;1.00;99.90
8945;DHT22;4507;40.232;29.132;2023-02-04T05:21:32;1.10;99.90
8945;DHT22;4507;40.232;29.132;2023-02-04T05:24:01;1.10;99.90
8945;DHT22;4507;40.232;29.132;2023-02-04T05:26:31;1.20;99.90
8945;DHT22;4507;40.232;29.132;2023-02-04T05:29:00;1.20;99.90
8945;DHT22;4507;40.232;29.132;2023-02-04T05:31:29;1.30;99.90
8945;DHT22;4507;40.232;29.132;2023-02-04T05:33:58;1.30;99.90
8945;DHT22;4507;40.232;29.132;2023-02-04T05:36:27;1.30;99.90
8945;DHT22;4507;40.232;29.132;2023-02-04T05:38:56;1.40;99.90
8945;DHT22;4507;40.232;29.132;2023-02-04T05:41:24;1.40;99.90
8945;DHT22;4507;40.232;29.132;2023-02-04T05:43:55;1.50;99.90
8945;DHT22;4507;40.232;29.132;2023-02-04T05:46:24;1.50;99.90
8945;DHT22;4507;40.232;29.132;2023-02-04T05:48:52;1.60;99.90
8945;DHT22;4507;40.232;29.132;2023-02-04T05:51:21;1.60;99.90
8945;DHT22;4507;40.232;29.132;2023-02-04T05:53:50;1.60;99.90
8945;DHT22;4507;40.232;29.132;2023-02-04T05:56:19;1.70;99.90
8945;DHT22;4507;40.232;29.132;2023-02-04T05:58:48;1.70;99.90
8945;DHT22;4507;40.232;29.132;2023-02-04T06:01:18;1.80;99.90
8945;DHT22;4507;40.232;29.132;2023-02-04T06:03:47;1.80;99.90
8945;DHT22;4507;40.232;29.132;2023-02-04T06:06:16;1.90;99.90
8945;DHT22;4507;40.232;29.132;2023-02-04T06:08:45;1.90;99.90
8945;DHT22;4507;40.232;29.132;2023-02-04T06:11:14;1.90;99.90
8945;DHT22;4507;40.232;29.132;2023-02-04T06:13:43;1.90;99.90
8945;DHT22;4507;40.232;29.132;2023-02-04T06:16:11;2.00;99.90
8945;DHT22;4507;40.232;29.132;2023-02-04T06:18:42;2.00;99.90
8945;DHT22;4507;40.232;29.132;2023-02-04T06:21:11;2.00;99.90
8945;DHT22;4507;40.232;29.132;2023-02-04T06:23:40;2.00;99.90
8945;DHT22;4507;40.232;29.132;2023-02-04T06:26:09;2.10;99.90
8945;DHT22;4507;40.232;29.132;2023-02-04T06:28:38;2.10;99.90
8945;DHT22;4507;40.232;29.132;2023-02-04T06:31:07;2.10;99.90
8945;DHT22;4507;40.232;29.132;2023-02-04T06:33:36;2.20;99.90
8945;DHT22;4507;40.232;29.132;2023-02-04T06:36:07;2.20;99.90
8945;DHT22;4507;40.232;29.132;2023-02-04T06:38:36;2.30;99.90
8945;DHT22;4507;40.232;29.132;2023-02-04T06:41:05;2.30;99.90
8945;DHT22;4507;40.232;29.132;2023-02-04T06:43:34;2.40;99.90
8945;DHT22;4507;40.232;29.132;2023-02-04T06:46:03;2.40;99.90
8945;DHT22;4507;40.232;29.132;2023-02-04T06:48:32;2.40;99.90
8945;DHT22;4507;40.232;29.132;2023-02-04T06:51:01;2.50;99.90
8945;DHT22;4507;40.232;29.132;2023-02-04T06:53:31;2.60;99.90
8945;DHT22;4507;40.232;29.132;2023-02-04T06:56:00;2.70;99.90
8945;DHT22;4507;40.232;29.132;2023-02-04T06:58:29;2.70;99.90
8945;DHT22;4507;40.232;29.132;2023-02-04T07:00:58;2.70;99.90
8945;DHT22;4507;40.232;29.132;2023-02-04T07:03:27;2.80;99.90
8945;DHT22;4507;40.232;29.132;2023-02-04T07:05:56;2.80;99.90
8945;DHT22;4507;40.232;29.132;2023-02-04T07:08:24;2.90;99.90
8945;DHT22;4507;40.232;29.132;2023-02-04T07:10:55;2.90;99.90
8945;DHT22;4507;40.232;29.132;2023-02-04T07:13:24;3.00;99.90
8945;DHT22;4507;40.232;29.132;2023-02-04T07:15:53;3.00;99.90
8945;DHT22;4507;40.232;29.132;2023-02-04T07:18:22;3.00;99.90
8945;DHT22;4507;40.232;29.132;2023-02-04T07:20:50;3.10;99.90
8945;DHT22;4507;40.232;29.132;2023-02-04T07:23:20;3.20;99.90
8945;DHT22;4507;40.232;29.132;2023-02-04T07:25:50;3.20;99.90
8945;DHT22;4507;40.232;29.132;2023-02-04T07:28:21;3.30;99.90
8945;DHT22;4507;40.232;29.132;2023-02-04T07:30:50;3.30;99.90
8945;DHT22;4507;40.232;29.132;2023-02-04T07:33:20;3.30;99.90
8945;DHT22;4507;40.232;29.132;2023-02-04T07:35:48;3.30;99.90
8945;DHT22;4507;40.232;29.132;2023-02-04T07:38:17;3.30;99.90
8945;DHT22;4507;40.232;29.132;2023-02-04T07:40:46;3.40;99.90
8945;DHT22;4507;40.232;29.132;2023-02-04T07:43:15;3.40;99.90
8945;DHT22;4507;40.232;29.132;2023-02-04T07:45:45;3.40;99.90
8945;DHT22;4507;40.232;29.132;2023-02-04T07:48:14;3.50;99.90
8945;DHT22;4507;40.232;29.132;2023-02-04T07:50:43;3.60;99.90
8945;DHT22;4507;40.232;29.132;2023-02-04T07:53:12;3.60;99.90
8945;DHT22;4507;40.232;29.132;2023-02-04T07:55:41;3.70;99.90
8945;DHT22;4507;40.232;29.132;2023-02-04T07:58:10;3.70;99.90
8945;DHT22;4507;40.232;29.132;2023-02-04T08:00:39;3.70;99.90
8945;DHT22;4507;40.232;29.132;2023-02-04T08:03:09;3.80;99.90
8945;DHT22;4507;40.232;29.132;2023-02-04T08:05:38;3.90;99.90
8945;DHT22;4507;40.232;29.132;2023-02-04T08:08:07;3.90;99.90
8945;DHT22;4507;40.232;29.132;2023-02-04T08:10:36;3.90;99.90
8945;DHT22;4507;40.232;29.132;2023-02-04T08:13:05;4.00;99.90
8945;DHT22;4507;40.232;29.132;2023-02-04T08:15:34;4.00;99.90
8945;DHT22;4507;40.232;29.132;2023-02-04T08:18:03;4.00;99.90
8945;DHT22;4507;40.232;29.132;2023-02-04T08:20:34;4.00;99.90
8945;DHT22;4507;40.232;29.132;2023-02-04T08:23:03;4.10;99.90
8945;DHT22;4507;40.232;29.132;2023-02-04T08:25:32;4.10;99.90
8945;DHT22;4507;40.232;29.132;2023-02-04T08:28:00;4.10;99.90
8945;DHT22;4507;40.232;29.132;2023-02-04T08:30:29;4.10;99.90
8945;DHT22;4507;40.232;29.132;2023-02-04T08:32:59;4.20;99.90
8945;DHT22;4507;40.232;29.132;2023-02-04T08:35:28;4.20;99.90
8945;DHT22;4507;40.232;29.132;2023-02-04T08:37:58;4.20;99.90
8945;DHT22;4507;40.232;29.132;2023-02-04T08:40:27;4.30;99.90
8945;DHT22;4507;40.232;29.132;2023-02-04T08:42:57;4.30;99.90
8945;DHT22;4507;40.232;29.132;2023-02-04T08:45:26;4.30;99.90
8945;DHT22;4507;40.232;29.132;2023-02-04T08:47:55;4.40;99.90
8945;DHT22;4507;40.232;29.132;2023-02-04T08:50:24;4.40;99.90
8945;DHT22;4507;40.232;29.132;2023-02-04T08:52:55;4.50;99.90
8945;DHT22;4507;40.232;29.132;2023-02-04T08:55:25;4.50;99.90
8945;DHT22;4507;40.232;29.132;2023-02-04T08:57:54;4.60;99.90
8945;DHT22;4507;40.232;29.132;2023-02-04T09:00:25;4.60;99.90
8945;DHT22;4507;40.232;29.132;2023-02-04T09:02:54;4.60;99.90
8945;DHT22;4507;40.232;29.132;2023-02-04T09:05:23;4.70;99.80
8945;DHT22;4507;40.232;29.132;2023-02-04T09:07:52;4.70;99.60
8945;DHT22;4507;40.232;29.132;2023-02-04T09:10:21;4.70;99.50
8945;DHT22;4507;40.232;29.132;2023-02-04T09:12:51;4.70;99.20
8945;DHT22;4507;40.232;29.132;2023-02-04T09:15:23;4.70;98.90
8945;DHT22;4507;40.232;29.132;2023-02-04T09:17:52;4.70;98.70
8945;DHT22;4507;40.232;29.132;2023-02-04T09:20:27;4.70;98.60
8945;DHT22;4507;40.232;29.132;2023-02-04T09:22:57;4.70;98.60
8945;DHT22;4507;40.232;29.132;2023-02-04T09:25:26;4.70;98.90
8945;DHT22;4507;40.232;29.132;2023-02-04T09:27:56;4.80;99.40
8945;DHT22;4507;40.232;29.132;2023-02-04T09:30:25;5.00;99.90
8945;DHT22;4507;40.232;29.132;2023-02-04T09:32:54;5.20;99.90
8945;DHT22;4507;40.232;29.132;2023-02-04T09:35:23;5.50;99.90
8945;DHT22;4507;40.232;29.132;2023-02-04T09:37:52;5.90;99.90
8945;DHT22;4507;40.232;29.132;2023-02-04T09:40:21;6.40;99.90
8945;DHT22;4507;40.232;29.132;2023-02-04T09:42:51;6.80;99.90
8945;DHT22;4507;40.232;29.132;2023-02-04T09:45:23;7.20;99.90
8945;DHT22;4507;40.232;29.132;2023-02-04T09:47:54;7.60;99.90
8945;DHT22;4507;40.232;29.132;2023-02-04T09:50:25;7.90;99.30
8945;DHT22;4507;40.232;29.132;2023-02-04T09:52:57;8.10;96.30
8945;DHT22;4507;40.232;29.132;2023-02-04T09:55:32;8.20;94.50
8945;DHT22;4507;40.232;29.132;2023-02-04T09:58:02;8.20;93.70
8945;DHT22;4507;40.232;29.132;2023-02-04T10:00:35;8.10;92.60
8945;DHT22;4507;40.232;29.132;2023-02-04T10:03:12;8.10;92.00
8945;DHT22;4507;40.232;29.132;2023-02-04T10:06:00;8.00;91.70
8945;DHT22;4507;40.232;29.132;2023-02-04T10:08:30;8.00;91.10
8945;DHT22;4507;40.232;29.132;2023-02-04T10:11:00;7.90;90.40
8945;DHT22;4507;40.232;29.132;2023-02-04T10:13:31;7.80;90.00
8945;DHT22;4507;40.232;29.132;2023-02-04T10:16:13;7.70;89.70
8945;DHT22;4507;40.232;29.132;2023-02-04T10:18:43;7.50;89.70
8945;DHT22;4507;40.232;29.132;2023-02-04T10:21:16;7.40;90.00
8945;DHT22;4507;40.232;29.132;2023-02-04T10:23:47;7.30;89.70
8945;DHT22;4507;40.232;29.132;2023-02-04T10:26:24;7.20;88.90
8945;DHT22;4507;40.232;29.132;2023-02-04T10:28:58;7.10;88.00
8945;DHT22;4507;40.232;29.132;2023-02-04T10:31:31;6.90;87.70
8945;DHT22;4507;40.232;29.132;2023-02-04T10:34:22;6.80;88.10
8945;DHT22;4507;40.232;29.132;2023-02-04T10:36:54;6.60;88.50
8945;DHT22;4507;40.232;29.132;2023-02-04T10:39:25;6.50;89.00
8945;DHT22;4507;40.232;29.132;2023-02-04T10:41:56;6.50;89.40
8945;DHT22;4507;40.232;29.132;2023-02-04T10:44:27;6.40;89.50
8945;DHT22;4507;40.232;29.132;2023-02-04T10:47:01;6.30;89.80
8945;DHT22;4507;40.232;29.132;2023-02-04T10:49:31;6.20;89.70
8945;DHT22;4507;40.232;29.132;2023-02-04T10:52:01;6.20;90.00
8945;DHT22;4507;40.232;29.132;2023-02-04T10:54:36;6.10;90.20
8945;DHT22;4507;40.232;29.132;2023-02-04T10:57:13;6.00;90.50
8945;DHT22;4507;40.232;29.132;2023-02-04T10:59:47;6.00;90.80
8945;DHT22;4507;40.232;29.132;2023-02-04T11:02:35;5.90;91.00
8945;DHT22;4507;40.232;29.132;2023-02-04T11:05:10;5.90;91.30
8945;DHT22;4507;40.232;29.132;2023-02-04T11:07:39;5.90;91.10
8945;DHT22;4507;40.232;29.132;2023-02-04T11:10:13;5.90;91.10
8945;DHT22;4507;40.232;29.132;2023-02-04T11:12:45;5.80;90.60
8945;DHT22;4507;40.232;29.132;2023-02-04T11:15:37;5.80;90.40
8945;DHT22;4507;40.232;29.132;2023-02-04T11:18:09;5.80;90.90
8945;DHT22;4507;40.232;29.132;2023-02-04T11:20:39;5.80;91.20
8945;DHT22;4507;40.232;29.132;2023-02-04T11:23:27;5.80;91.40
8945;DHT22;4507;40.232;29.132;2023-02-04T11:26:06;5.80;91.60
8945;DHT22;4507;40.232;29.132;2023-02-04T11:28:50;5.80;91.80
8945;DHT22;4507;40.232;29.132;2023-02-04T11:31:41;5.80;92.00
8945;DHT22;4507;40.232;29.132;2023-02-04T11:34:26;5.80;92.00
8945;DHT22;4507;40.232;29.132;2023-02-04T11:37:05;5.80;92.00
8945;DHT22;4507;40.232;29.132;2023-02-04T11:39:41;5.70;92.10
8945;DHT22;4507;40.232;29.132;2023-02-04T11:42:18;5.70;92.30
8945;DHT22;4507;40.232;29.132;2023-02-04T11:44:49;5.70;92.40
8945;DHT22;4507;40.232;29.132;2023-02-04T11:47:19;5.70;92.60
8945;DHT22;4507;40.232;29.132;2023-02-04T11:49:53;5.60;92.70
8945;DHT22;4507;40.232;29.132;2023-02-04T11:52:22;5.60;92.70
8945;DHT22;4507;40.232;29.132;2023-02-04T11:54:55;5.60;92.70
8945;DHT22;4507;40.232;29.132;2023-02-04T11:57:25;5.60;92.80
8945;DHT22;4507;40.232;29.132;2023-02-04T11:59:54;5.50;93.00
8945;DHT22;4507;40.232;29.132;2023-02-04T12:02:24;5.50;93.20
8945;DHT22;4507;40.232;29.132;2023-02-04T12:04:56;5.50;93.30
8945;DHT22;4507;40.232;29.132;2023-02-04T12:07:27;5.50;93.50
8945;DHT22;4507;40.232;29.132;2023-02-04T12:09:57;5.50;93.60
8945;DHT22;4507;40.232;29.132;2023-02-04T12:12:29;5.40;93.80
8945;DHT22;4507;40.232;29.132;2023-02-04T12:15:08;5.40;94.10
8945;DHT22;4507;40.232;29.132;2023-02-04T12:17:44;5.40;94.50
8945;DHT22;4507;40.232;29.132;2023-02-04T12:20:15;5.40;94.70
8945;DHT22;4507;40.232;29.132;2023-02-04T12:22:44;5.40;94.90
8945;DHT22;4507;40.232;29.132;2023-02-04T12:25:13;5.40;94.80
8945;DHT22;4507;40.232;29.132;2023-02-04T12:27:43;5.30;94.80
8945;DHT22;4507;40.232;29.132;2023-02-04T12:30:12;5.30;95.10
8945;DHT22;4507;40.232;29.132;2023-02-04T12:32:41;5.30;95.50
8945;DHT22;4507;40.232;29.132;2023-02-04T12:35:10;5.30;95.70
8945;DHT22;4507;40.232;29.132;2023-02-04T12:37:41;5.30;95.80
8945;DHT22;4507;40.232;29.132;2023-02-04T12:40:13;5.40;96.30
8945;DHT22;4507;40.232;29.132;2023-02-04T12:42:43;5.40;96.60
8945;DHT22;4507;40.232;29.132;2023-02-04T12:45:14;5.40;96.70
8945;DHT22;4507;40.232;29.132;2023-02-04T12:47:43;5.40;96.70
8945;DHT22;4507;40.232;29.132;2023-02-04T12:50:14;5.40;96.50
8945;DHT22;4507;40.232;29.132;2023-02-04T12:52:52;5.40;96.50
8945;DHT22;4507;40.232;29.132;2023-02-04T12:55:23;5.40;96.50
8945;DHT22;4507;40.232;29.132;2023-02-04T12:57:52;5.40;96.40
8945;DHT22;4507;40.232;29.132;2023-02-04T13:00:23;5.30;96.20
8945;DHT22;4507;40.232;29.132;2023-02-04T13:02:53;5.30;96.30
8945;DHT22;4507;40.232;29.132;2023-02-04T13:05:26;5.30;96.40
8945;DHT22;4507;40.232;29.132;2023-02-04T13:07:56;5.30;96.30
8945;DHT22;4507;40.232;29.132;2023-02-04T13:10:25;5.30;96.00
8945;DHT22;4507;40.232;29.132;2023-02-04T13:12:54;5.30;96.10
8945;DHT22;4507;40.232;29.132;2023-02-04T13:15:23;5.20;96.10
8945;DHT22;4507;40.232;29.132;2023-02-04T13:17:52;5.30;96.40
8945;DHT22;4507;40.232;29.132;2023-02-04T13:20:35;5.30;96.60
8945;DHT22;4507;40.232;29.132;2023-02-04T13:23:06;5.30;96.50
8945;DHT22;4507;40.232;29.132;2023-02-04T13:25:35;5.30;96.50
8945;DHT22;4507;40.232;29.132;2023-02-04T13:28:04;5.30;95.90
8945;DHT22;4507;40.232;29.132;2023-02-04T13:30:33;5.30;95.60
8945;DHT22;4507;40.232;29.132;2023-02-04T13:33:02;5.30;95.60
8945;DHT22;4507;40.232;29.132;2023-02-04T13:35:32;5.30;95.70
8945;DHT22;4507;40.232;29.132;2023-02-04T13:38:01;5.30;95.90
8945;DHT22;4507;40.232;29.132;2023-02-04T13:40:31;5.30;96.00
8945;DHT22;4507;40.232;29.132;2023-02-04T13:43:01;5.30;96.30
8945;DHT22;4507;40.232;29.132;2023-02-04T13:45:29;5.30;96.40
8945;DHT22;4507;40.232;29.132;2023-02-04T13:47:59;5.30;96.40
8945;DHT22;4507;40.232;29.132;2023-02-04T13:50:28;5.40;96.30
8945;DHT22;4507;40.232;29.132;2023-02-04T13:52:58;5.40;96.30
8945;DHT22;4507;40.232;29.132;2023-02-04T13:55:27;5.40;96.10
8945;DHT22;4507;40.232;29.132;2023-02-04T13:57:57;5.40;96.00
8945;DHT22;4507;40.232;29.132;2023-02-04T14:00:26;5.40;96.10
8945;DHT22;4507;40.232;29.132;2023-02-04T14:02:55;5.50;96.00
8945;DHT22;4507;40.232;29.132;2023-02-04T14:05:24;5.50;96.00
8945;DHT22;4507;40.232;29.132;2023-02-04T14:07:53;5.50;96.10
8945;DHT22;4507;40.232;29.132;2023-02-04T14:10:22;5.50;96.10
8945;DHT22;4507;40.232;29.132;2023-02-04T14:12:53;5.50;96.10
8945;DHT22;4507;40.232;29.132;2023-02-04T14:15:23;5.50;96.20
8945;DHT22;4507;40.232;29.132;2023-02-04T14:17:52;5.50;96.10
8945;DHT22;4507;40.232;29.132;2023-02-04T14:20:21;5.50;96.20
8945;DHT22;4507;40.232;29.132;2023-02-04T14:22:50;5.50;96.40
8945;DHT22;4507;40.232;29.132;2023-02-04T14:25:19;5.50;96.50
8945;DHT22;4507;40.232;29.132;2023-02-04T14:27:48;5.50;96.80
8945;DHT22;4507;40.232;29.132;2023-02-04T14:30:19;5.50;97.00
8945;DHT22;4507;40.232;29.132;2023-02-04T14:32:50;5.60;97.30
8945;DHT22;4507;40.232;29.132;2023-02-04T14:35:19;5.60;97.40
8945;DHT22;4507;40.232;29.132;2023-02-04T14:37:48;5.50;97.50
8945;DHT22;4507;40.232;29.132;2023-02-04T14:40:18;5.50;97.80
8945;DHT22;4507;40.232;29.132;2023-02-04T14:42:47;5.50;98.00
8945;DHT22;4507;40.232;29.132;2023-02-04T14:45:17;5.50;98.20
8945;DHT22;4507;40.232;29.132;2023-02-04T14:47:46;5.40;98.30
8945;DHT22;4507;40.232;29.132;2023-02-04T14:50:17;5.30;98.40
8945;DHT22;4507;40.232;29.132;2023-02-04T14:52:46;5.30;98.60
8945;DHT22;4507;40.232;29.132;2023-02-04T14:55:15;5.20;98.70
8945;DHT22;4507;40.232;29.132;2023-02-04T14:57:44;5.10;98.90
8945;DHT22;4507;40.232;29.132;2023-02-04T15:00:14;5.10;99.10
8945;DHT22;4507;40.232;29.132;2023-02-04T15:02:43;5.00;99.20
8945;DHT22;4507;40.232;29.132;2023-02-04T15:05:12;4.90;99.30
8945;DHT22;4507;40.232;29.132;2023-02-04T15:07:43;4.80;99.30
8945;DHT22;4507;40.232;29.132;2023-02-04T15:10:12;4.80;99.60
8945;DHT22;4507;40.232;29.132;2023-02-04T15:12:41;4.70;99.70
8945;DHT22;4507;40.232;29.132;2023-02-04T15:15:11;4.60;99.90
8945;DHT22;4507;40.232;29.132;2023-02-04T15:17:40;4.50;99.90
8945;DHT22;4507;40.232;29.132;2023-02-04T15:20:09;4.50;99.90
8945;DHT22;4507;40.232;29.132;2023-02-04T15:22:38;4.40;99.90
8945;DHT22;4507;40.232;29.132;2023-02-04T15:25:09;4.40;99.90
8945;DHT22;4507;40.232;29.132;2023-02-04T15:27:38;4.40;99.90
8945;DHT22;4507;40.232;29.132;2023-02-04T15:30:08;4.30;99.90
8945;DHT22;4507;40.232;29.132;2023-02-04T15:32:37;4.20;99.90
8945;DHT22;4507;40.232;29.132;2023-02-04T15:35:08;4.10;99.90
8945;DHT22;4507;40.232;29.132;2023-02-04T15:37:37;4.00;99.90
8945;DHT22;4507;40.232;29.132;2023-02-04T15:40:06;3.90;99.90
8945;DHT22;4507;40.232;29.132;2023-02-04T15:42:37;3.80;99.90
8945;DHT22;4507;40.232;29.132;2023-02-04T15:45:07;3.60;99.90
8945;DHT22;4507;40.232;29.132;2023-02-04T15:47:36;3.50;99.90
8945;DHT22;4507;40.232;29.132;2023-02-04T15:50:05;3.40;99.90
8945;DHT22;4507;40.232;29.132;2023-02-04T15:52:37;3.30;99.90
8945;DHT22;4507;40.232;29.132;2023-02-04T15:55:06;3.20;99.90
8945;DHT22;4507;40.232;29.132;2023-02-04T15:57:36;3.20;99.90
8945;DHT22;4507;40.232;29.132;2023-02-04T16:00:07;3.10;99.90
8945;DHT22;4507;40.232;29.132;2023-02-04T16:02:36;3.00;99.90
8945;DHT22;4507;40.232;29.132;2023-02-04T16:05:05;3.00;99.90
8945;DHT22;4507;40.232;29.132;2023-02-04T16:07:34;2.90;99.90
8945;DHT22;4507;40.232;29.132;2023-02-04T16:10:03;2.90;99.90
8945;DHT22;4507;40.232;29.132;2023-02-04T16:12:32;2.90;99.90
8945;DHT22;4507;40.232;29.132;2023-02-04T16:15:03;2.80;99.90
8945;DHT22;4507;40.232;29.132;2023-02-04T16:17:32;2.80;99.90
8945;DHT22;4507;40.232;29.132;2023-02-04T16:20:02;2.80;99.90
8945;DHT22;4507;40.232;29.132;2023-02-04T16:22:31;2.80;99.90